createdAt,value
2022-12-13T00:01:29.495Z,51.99
2022-12-13T00:03:59.185Z,52.66
2022-12-13T00:06:27.457Z,53.44
2022-12-13T00:08:55.648Z,48.07
2022-12-13T00:11:23.521Z,49.05
2022-12-13T00:13:52.955Z,50.46
2022-12-13T00:16:23.812Z,52.71
2022-12-13T00:18:53.993Z,48.76
2022-12-13T00:21:22.880Z,50.25
2022-12-13T00:23:51.746Z,52.32
2022-12-13T00:26:22.303Z,50.51
2022-12-13T00:28:52.923Z,51.45
2022-12-13T00:34:11.766Z,54.42
2022-12-13T00:36:39.543Z,53.17
2022-12-13T00:39:07.422Z,50.13
2022-12-13T00:41:37.222Z,53.41
2022-12-13T00:44:06.755Z,54.05
2022-12-13T00:46:34.587Z,52.15
2022-12-13T00:49:02.832Z,51.21
2022-12-13T00:51:32.218Z,55.57
2022-12-13T00:54:00.950Z,53.94
2022-12-13T00:56:30.264Z,57.09
2022-12-13T00:58:58.539Z,55.42
2022-12-13T01:01:28.971Z,58.19
2022-12-13T01:03:58.510Z,56.70
2022-12-13T01:06:29.674Z,57.29
2022-12-13T01:08:57.599Z,55.84
2022-12-13T01:11:26.306Z,54.32
2022-12-13T01:13:54.074Z,57.84
2022-12-13T01:16:22.084Z,51.90
2022-12-13T01:18:51.337Z,50.69
2022-12-13T01:21:20.744Z,55.37
2022-12-13T01:23:50.758Z,57.05
2022-12-13T01:26:21.007Z,60.61
2022-12-13T01:28:49.341Z,55.44
2022-12-13T01:31:20.230Z,56.94
2022-12-13T01:33:48.184Z,58.33
2022-12-13T01:36:19.184Z,52.58
2022-12-13T01:38:47.128Z,59.59
2022-12-13T01:41:17.796Z,58.88
2022-12-13T01:43:55.757Z,59.86
2022-12-13T01:46:23.937Z,61.29
2022-12-13T01:48:56.668Z,61.03
2022-12-13T01:51:29.998Z,60.41
2022-12-13T01:53:59.384Z,58.59
2022-12-13T01:56:30.783Z,56.12
2022-12-13T01:58:59.160Z,55.55
2022-12-13T02:01:27.228Z,56.18
2022-12-13T02:03:55.305Z,57.71
2022-12-13T02:06:30.862Z,53.42
2022-12-13T02:08:59.130Z,55.69
2022-12-13T02:11:28.382Z,55.88
2022-12-13T02:13:56.209Z,54.57
2022-12-13T02:16:35.088Z,55.89
2022-12-13T02:19:22.975Z,54.04
2022-12-13T02:21:59.924Z,54.17
2022-12-13T02:24:53.826Z,57.00
2022-12-13T02:27:42.647Z,54.97
2022-12-13T02:30:24.500Z,57.95
2022-12-13T02:33:27.424Z,56.84
2022-12-13T02:36:05.761Z,57.01
2022-12-13T02:38:38.514Z,58.61
2022-12-13T02:41:15.876Z,59.76
2022-12-13T02:43:48.407Z,56.27
2022-12-13T02:46:18.908Z,55.88
2022-12-13T02:48:47.941Z,60.27
2022-12-13T02:51:16.821Z,59.04
2022-12-13T02:53:45.027Z,59.03
2022-12-13T02:56:13.735Z,61.12
2022-12-13T02:58:44.036Z,61.92
2022-12-13T03:01:40.400Z,60.44
2022-12-13T03:04:14.460Z,61.80
2022-12-13T03:06:49.801Z,57.51
2022-12-13T03:09:29.411Z,57.83
2022-12-13T03:12:27.031Z,60.17
2022-12-13T03:14:59.708Z,60.15
2022-12-13T03:17:30.230Z,63.57
2022-12-13T03:19:58.216Z,62.91
2022-12-13T03:22:26.001Z,65.06
2022-12-13T03:24:53.893Z,61.07
2022-12-13T03:27:21.789Z,55.14
2022-12-13T03:29:49.554Z,62.54
2022-12-13T03:32:17.418Z,65.01
2022-12-13T03:34:49.656Z,68.26
2022-12-13T03:37:20.086Z,63.50
2022-12-13T03:39:48.005Z,69.95
2022-12-13T03:42:16.201Z,67.54
2022-12-13T03:44:44.055Z,65.44
2022-12-13T03:47:11.927Z,61.38
2022-12-13T03:49:39.722Z,66.75
2022-12-13T03:52:08.883Z,62.12
2022-12-13T03:54:36.741Z,63.82
2022-12-13T03:57:05.916Z,63.68
2022-12-13T03:59:33.751Z,65.00
2022-12-13T04:02:01.545Z,61.93
2022-12-13T04:04:29.663Z,55.15
2022-12-13T04:06:57.486Z,56.47
2022-12-13T04:09:26.782Z,56.19
2022-12-13T04:12:11.918Z,60.60
2022-12-13T04:14:39.803Z,60.75
2022-12-13T04:17:07.653Z,60.14
2022-12-13T04:19:35.453Z,62.33
2022-12-13T04:22:03.257Z,60.09
2022-12-13T04:24:32.870Z,59.26
2022-12-13T04:27:01.887Z,59.63
2022-12-13T04:29:34.334Z,57.50
2022-12-13T04:32:03.239Z,62.08
2022-12-13T04:34:36.936Z,57.83
2022-12-13T04:37:05.828Z,54.62
2022-12-13T04:39:35.031Z,54.94
2022-12-13T04:42:02.950Z,54.44
2022-12-13T04:44:36.596Z,57.87
2022-12-13T04:47:05.256Z,53.15
2022-12-13T04:49:33.763Z,52.44
2022-12-13T04:52:02.177Z,54.66
2022-12-13T04:54:36.305Z,59.36
2022-12-13T04:57:08.493Z,60.14
2022-12-13T04:59:37.052Z,56.95
2022-12-13T05:02:05.724Z,52.39
2022-12-13T05:04:34.308Z,56.91
2022-12-13T05:07:02.221Z,53.90
2022-12-13T05:09:30.285Z,57.35
2022-12-13T05:12:01.362Z,55.68
2022-12-13T05:14:32.029Z,52.91
2022-12-13T05:17:00.235Z,49.85
2022-12-13T05:19:31.124Z,53.07
2022-12-13T05:22:01.680Z,52.54
2022-12-13T05:24:30.790Z,53.88
2022-12-13T05:26:58.732Z,51.61
2022-12-13T05:29:27.509Z,54.38
2022-12-13T05:31:56.771Z,51.96
2022-12-13T05:34:24.576Z,54.25
2022-12-13T05:36:52.643Z,56.40
2022-12-13T05:39:27.982Z,52.14
2022-12-13T05:42:01.829Z,51.06
2022-12-13T05:44:31.654Z,49.76
2022-12-13T05:47:02.236Z,52.27
2022-12-13T05:49:32.014Z,53.16
2022-12-13T05:52:00.037Z,49.82
2022-12-13T05:54:27.838Z,50.05
2022-12-13T05:56:55.867Z,54.10
2022-12-13T05:59:23.624Z,52.98
2022-12-13T06:01:53.977Z,55.45
2022-12-13T06:04:23.569Z,58.30
2022-12-13T06:06:52.163Z,60.88
2022-12-13T06:09:20.278Z,59.72
2022-12-13T06:11:48.419Z,56.49
2022-12-13T06:14:21.513Z,57.53
2022-12-13T06:16:51.500Z,55.78
2022-12-13T06:19:19.620Z,55.93
2022-12-13T06:21:48.839Z,53.72
2022-12-13T06:24:17.805Z,54.72
2022-12-13T06:26:46.357Z,58.07
2022-12-13T06:29:23.167Z,60.07
2022-12-13T06:32:01.079Z,57.42
2022-12-13T06:34:31.554Z,57.16
2022-12-13T06:37:00.981Z,58.40
2022-12-13T06:39:32.910Z,58.81
2022-12-13T06:42:02.921Z,58.17
2022-12-13T06:44:30.697Z,64.63
2022-12-13T06:47:11.551Z,63.36
2022-12-13T06:49:42.457Z,64.02
2022-12-13T06:52:13.014Z,64.44
2022-12-13T06:54:41.587Z,59.97
2022-12-13T06:57:09.639Z,64.18
2022-12-13T06:59:37.871Z,57.51
2022-12-13T07:02:06.665Z,54.36
2022-12-13T07:04:52.421Z,55.72
2022-12-13T07:07:21.740Z,55.20
2022-12-13T07:09:49.541Z,57.52
2022-12-13T07:12:17.338Z,58.94
2022-12-13T07:14:45.191Z,56.74
2022-12-13T07:17:13.001Z,56.58
2022-12-13T07:20:01.337Z,57.65
2022-12-13T07:22:34.658Z,60.40
2022-12-13T07:25:04.868Z,54.33
2022-12-13T07:27:32.875Z,55.63
2022-12-13T07:30:00.787Z,54.67
2022-12-13T07:32:28.633Z,55.02
2022-12-13T07:34:56.537Z,56.52
2022-12-13T07:37:29.296Z,54.01
2022-12-13T07:40:04.080Z,50.92
2022-12-13T07:42:32.817Z,54.38
2022-12-13T07:45:00.673Z,54.25
2022-12-13T07:47:30.480Z,52.56
2022-12-13T07:49:58.655Z,51.77
2022-12-13T07:52:26.439Z,50.52
2022-12-13T07:54:54.298Z,50.63
2022-12-13T07:57:23.516Z,51.88
2022-12-13T07:59:51.290Z,51.78
2022-12-13T08:02:19.158Z,55.00
2022-12-13T08:04:47.065Z,54.02
2022-12-13T08:07:25.310Z,55.56
2022-12-13T08:09:53.482Z,56.47
2022-12-13T08:12:22.716Z,56.29
2022-12-13T08:14:53.167Z,53.52
2022-12-13T08:17:22.174Z,49.81
2022-12-13T08:19:49.943Z,51.25
2022-12-13T08:22:24.285Z,51.12
2022-12-13T08:24:52.448Z,52.53
2022-12-13T08:27:20.267Z,52.70
2022-12-13T08:29:48.340Z,52.76
2022-12-13T08:32:17.793Z,53.82
2022-12-13T08:34:46.528Z,54.87
2022-12-13T08:37:14.502Z,50.86
2022-12-13T08:39:42.454Z,48.72
2022-12-13T08:42:15.866Z,48.14
2022-12-13T08:44:46.816Z,50.12
2022-12-13T08:47:24.367Z,54.34
2022-12-13T08:50:01.397Z,55.03
2022-12-13T08:52:31.949Z,54.78
2022-12-13T08:55:07.521Z,55.49
2022-12-13T08:57:36.780Z,54.55
2022-12-13T09:00:05.327Z,53.96
2022-12-13T09:02:38.065Z,52.14
2022-12-13T09:05:09.724Z,50.16
2022-12-13T09:07:39.542Z,51.59
2022-12-13T09:10:25.478Z,52.13
2022-12-13T09:13:01.337Z,50.60
2022-12-13T09:15:34.374Z,50.31
2022-12-13T09:18:04.509Z,49.79
2022-12-13T09:20:41.102Z,49.00
2022-12-13T09:23:14.063Z,49.48
2022-12-13T09:26:05.969Z,51.01
2022-12-13T09:28:35.027Z,48.90
2022-12-13T09:31:03.620Z,47.14
2022-12-13T09:33:31.548Z,47.27
2022-12-13T09:36:01.339Z,48.29
2022-12-13T09:38:29.708Z,49.33
2022-12-13T09:40:59.561Z,48.35
2022-12-13T09:43:33.423Z,48.58
2022-12-13T09:46:12.992Z,50.08
2022-12-13T09:48:52.182Z,49.91
2022-12-13T09:51:28.800Z,48.94
2022-12-13T09:54:12.252Z,48.89
2022-12-13T09:56:40.148Z,47.85
2022-12-13T09:59:13.976Z,48.82
2022-12-13T10:01:41.963Z,49.14
2022-12-13T10:04:14.597Z,48.56
2022-12-13T10:06:43.770Z,49.31
2022-12-13T10:09:14.171Z,48.85
2022-12-13T10:11:50.673Z,47.92
2022-12-13T10:14:23.036Z,49.27
2022-12-13T10:16:53.264Z,46.89
2022-12-13T10:19:29.520Z,46.45
2022-12-13T10:22:01.299Z,47.56
2022-12-13T10:24:37.090Z,47.89
2022-12-13T10:27:12.900Z,46.67
2022-12-13T10:30:02.624Z,50.00
2022-12-13T10:32:37.906Z,51.64
2022-12-13T10:35:17.886Z,47.03
2022-12-13T10:37:47.010Z,46.24
2022-12-13T10:40:32.371Z,46.74
2022-12-13T10:43:14.595Z,47.97
2022-12-13T10:45:43.568Z,45.87
2022-12-13T10:48:21.007Z,47.70
2022-12-13T10:50:58.758Z,45.63
2022-12-13T10:53:31.326Z,47.07
2022-12-13T10:56:02.258Z,45.19
2022-12-13T10:58:39.323Z,48.36
2022-12-13T11:01:13.037Z,47.09
2022-12-13T11:03:41.216Z,47.87
2022-12-13T11:06:14.362Z,47.37
2022-12-13T11:08:43.616Z,46.60
2022-12-13T11:11:12.394Z,44.42
2022-12-13T11:13:43.148Z,43.70
2022-12-13T11:16:22.154Z,43.04
2022-12-13T11:18:53.623Z,42.52
2022-12-13T11:21:25.650Z,45.47
2022-12-13T11:23:55.921Z,45.44
2022-12-13T11:26:29.970Z,46.03
2022-12-13T11:29:10.403Z,44.71
2022-12-13T11:31:46.974Z,43.23
2022-12-13T11:34:21.461Z,43.98
2022-12-13T11:36:53.314Z,44.97
2022-12-13T11:39:29.227Z,43.34
2022-12-13T11:42:00.375Z,42.95
2022-12-13T11:44:34.069Z,42.49
2022-12-13T11:47:02.415Z,42.69
2022-12-13T11:49:38.463Z,44.92
2022-12-13T11:52:10.975Z,43.40
2022-12-13T11:54:48.678Z,41.76
2022-12-13T11:57:26.378Z,40.35
2022-12-13T12:00:02.468Z,42.58
2022-12-13T12:02:35.121Z,45.27
2022-12-13T12:05:06.059Z,44.02
2022-12-13T12:07:38.324Z,42.04
2022-12-13T12:10:19.129Z,44.26
2022-12-13T12:12:50.584Z,43.67
2022-12-13T12:15:26.681Z,42.35
2022-12-13T12:17:55.508Z,41.38
2022-12-13T12:20:28.580Z,43.68
2022-12-13T12:23:03.148Z,43.40
2022-12-13T12:25:38.952Z,42.06
2022-12-13T12:28:18.195Z,41.54
2022-12-13T12:30:52.423Z,40.58
2022-12-13T12:33:26.119Z,40.94
2022-12-13T12:36:05.397Z,40.75
2022-12-13T12:38:49.585Z,40.90
2022-12-13T12:41:29.923Z,42.20
2022-12-13T12:44:08.651Z,42.84
2022-12-13T12:47:09.201Z,42.14
2022-12-13T12:50:01.911Z,43.08
2022-12-13T12:52:38.855Z,43.48
2022-12-13T12:55:13.019Z,42.93
2022-12-13T12:57:49.200Z,42.39
2022-12-13T13:00:19.094Z,42.04
2022-12-13T13:02:51.203Z,42.43
2022-12-13T13:05:23.976Z,43.11
2022-12-13T13:07:58.554Z,43.08
2022-12-13T13:10:27.523Z,43.06
2022-12-13T13:13:11.249Z,43.34
2022-12-13T13:15:57.607Z,44.38
2022-12-13T13:18:50.143Z,44.82
2022-12-13T13:21:48.241Z,44.34
2022-12-13T13:24:22.449Z,43.96
2022-12-13T13:26:52.649Z,45.32
2022-12-13T13:29:43.897Z,46.11
2022-12-13T13:32:30.443Z,45.07
2022-12-13T13:35:54.352Z,45.59
2022-12-13T13:38:44.944Z,44.14
2022-12-13T13:41:40.984Z,42.66
2022-12-13T13:44:34.254Z,42.02
2022-12-13T13:47:13.549Z,43.92
2022-12-13T13:49:48.536Z,42.92
2022-12-13T13:52:27.402Z,42.31
2022-12-13T13:55:29.685Z,42.25
2022-12-13T13:58:30.916Z,42.31
2022-12-13T14:01:34.294Z,42.25
2022-12-13T14:04:38.856Z,43.47
2022-12-13T14:07:27.191Z,42.60
2022-12-13T14:10:06.497Z,42.00
2022-12-13T14:13:13.896Z,41.89
2022-12-13T14:16:05.337Z,41.36
2022-12-13T14:19:09.014Z,41.37
2022-12-13T14:22:00.238Z,41.32
2022-12-13T14:24:40.007Z,41.44
2022-12-13T14:27:18.436Z,41.07
2022-12-13T14:29:48.308Z,41.15
2022-12-13T14:32:28.616Z,40.86
2022-12-13T14:34:56.930Z,41.04
2022-12-13T14:37:30.474Z,41.27
2022-12-13T14:39:58.892Z,41.33
2022-12-13T14:42:29.723Z,43.70
2022-12-13T14:45:14.343Z,43.44
2022-12-13T14:47:42.995Z,42.79
2022-12-13T14:50:12.994Z,42.40
2022-12-13T14:52:42.233Z,42.18
2022-12-13T14:55:24.974Z,42.08
2022-12-13T14:57:54.946Z,42.03
2022-12-13T15:00:28.176Z,42.30
2022-12-13T15:02:59.787Z,42.91
2022-12-13T15:05:29.510Z,42.49
2022-12-13T15:07:58.918Z,42.89
2022-12-13T15:10:36.159Z,42.87
2022-12-13T15:13:04.625Z,42.91
2022-12-13T15:15:35.927Z,43.06
2022-12-13T15:18:08.866Z,42.99
2022-12-13T15:20:42.235Z,42.96
2022-12-13T15:23:26.153Z,43.57
2022-12-13T15:26:00.656Z,43.80
2022-12-13T15:28:32.083Z,43.36
2022-12-13T15:31:00.910Z,43.72
2022-12-13T15:33:36.568Z,43.86
2022-12-13T15:36:10.711Z,43.97
2022-12-13T15:38:44.952Z,44.28
2022-12-13T15:41:18.907Z,44.72
2022-12-13T15:43:48.654Z,45.07
2022-12-13T15:46:25.273Z,45.08
2022-12-13T15:48:54.139Z,45.41
2022-12-13T15:51:29.576Z,46.03
2022-12-13T15:54:08.241Z,46.15
2022-12-13T15:56:37.875Z,46.25
2022-12-13T15:59:07.764Z,46.79
2022-12-13T16:01:37.394Z,50.49
2022-12-13T16:04:06.578Z,49.72
2022-12-13T16:06:34.913Z,50.43
2022-12-13T16:09:04.838Z,49.53
2022-12-13T16:11:36.184Z,48.67
2022-12-13T16:14:34.918Z,48.95
2022-12-13T16:17:08.633Z,49.12
2022-12-13T16:19:36.798Z,49.65
2022-12-13T16:22:08.357Z,49.62
2022-12-13T16:24:37.091Z,49.57
2022-12-13T16:27:08.681Z,50.13
2022-12-13T16:29:37.403Z,50.20
2022-12-13T16:32:08.533Z,50.21
2022-12-13T16:34:37.091Z,50.74
2022-12-13T16:37:08.736Z,51.24
2022-12-13T16:39:52.770Z,50.55
2022-12-13T16:42:25.785Z,50.17
2022-12-13T16:45:11.276Z,49.03
2022-12-13T16:47:48.328Z,48.75
2022-12-13T16:50:18.473Z,48.67
2022-12-13T16:52:47.161Z,49.15
2022-12-13T16:55:15.125Z,50.31
2022-12-13T16:57:44.381Z,50.80
2022-12-13T17:00:13.829Z,51.49
2022-12-13T17:02:42.057Z,50.25
2022-12-13T17:05:10.320Z,49.70
2022-12-13T17:07:38.181Z,49.97
2022-12-13T17:10:07.786Z,49.68
2022-12-13T17:12:35.770Z,50.00
2022-12-13T17:15:05.570Z,50.76
2022-12-13T17:17:34.207Z,50.77
2022-12-13T17:20:02.143Z,50.95
2022-12-13T17:22:30.063Z,51.66
2022-12-13T17:24:57.832Z,50.90
2022-12-13T17:27:25.830Z,51.16
2022-12-13T17:29:53.660Z,51.94
2022-12-13T17:32:23.056Z,51.67
2022-12-13T17:34:52.071Z,52.25
2022-12-13T17:37:20.794Z,52.28
2022-12-13T17:39:48.715Z,52.15
2022-12-13T17:42:16.791Z,51.34
2022-12-13T17:44:44.590Z,52.09
2022-12-13T17:47:13.170Z,51.85
2022-12-13T17:49:42.390Z,51.89
2022-12-13T17:52:10.443Z,54.14
2022-12-13T17:54:38.273Z,53.50
2022-12-13T17:57:06.338Z,53.75
2022-12-13T17:59:37.029Z,54.59
2022-12-13T18:02:11.199Z,54.82
2022-12-13T18:04:39.083Z,53.59
2022-12-13T18:07:08.365Z,56.42
2022-12-13T18:09:36.291Z,55.34
2022-12-13T18:12:04.270Z,56.51
2022-12-13T18:14:32.052Z,54.67
2022-12-13T18:16:59.934Z,51.67
2022-12-13T18:19:30.214Z,50.80
2022-12-13T18:21:58.152Z,51.65
2022-12-13T18:24:27.508Z,50.97
2022-12-13T18:26:55.598Z,50.91
2022-12-13T18:29:23.438Z,50.56
2022-12-13T18:31:51.275Z,50.83
2022-12-13T18:34:19.111Z,50.80
2022-12-13T18:36:46.983Z,50.56
2022-12-13T18:39:14.943Z,50.28
2022-12-13T18:41:44.190Z,49.99
2022-12-13T18:44:13.520Z,49.54
2022-12-13T18:46:45.865Z,49.14
2022-12-13T18:49:14.445Z,49.22
2022-12-13T18:51:42.292Z,49.52
2022-12-13T18:54:10.192Z,50.28
2022-12-13T18:56:38.024Z,50.63
2022-12-13T18:59:07.239Z,50.73
2022-12-13T19:01:35.727Z,50.72
2022-12-13T19:04:03.813Z,51.06
2022-12-13T19:06:31.641Z,50.65
2022-12-13T19:08:59.555Z,50.98
2022-12-13T19:11:28.542Z,50.74
2022-12-13T19:13:56.724Z,50.90
2022-12-13T19:16:27.087Z,50.64
2022-12-13T19:18:55.119Z,51.02
2022-12-13T19:21:23.497Z,50.92
2022-12-13T19:23:57.085Z,50.94
2022-12-13T19:26:26.041Z,50.59
2022-12-13T19:28:53.888Z,50.08
2022-12-13T19:31:26.928Z,49.73
2022-12-13T19:34:00.292Z,50.17
2022-12-13T19:36:28.354Z,50.01
2022-12-13T19:38:56.878Z,49.32
2022-12-13T19:41:25.214Z,49.49
2022-12-13T19:43:54.026Z,49.90
2022-12-13T19:46:22.706Z,49.87
2022-12-13T19:48:50.898Z,50.34
2022-12-13T19:51:21.324Z,50.24
2022-12-13T19:53:49.626Z,50.35
2022-12-13T19:56:18.923Z,50.80
2022-12-13T19:58:48.205Z,50.58
2022-12-13T20:01:17.279Z,50.67
2022-12-13T20:03:46.286Z,50.76
2022-12-13T20:06:15.952Z,50.30
2022-12-13T20:08:45.587Z,50.13
2022-12-13T20:11:14.847Z,50.06
2022-12-13T20:13:42.834Z,50.02
2022-12-13T20:16:16.216Z,49.84
2022-12-13T20:18:44.083Z,50.21
2022-12-13T20:21:14.484Z,50.45
2022-12-13T20:23:48.659Z,50.32
2022-12-13T20:26:19.629Z,49.91
2022-12-13T20:28:48.036Z,49.81
2022-12-13T20:31:18.059Z,49.72
2022-12-13T20:33:45.941Z,49.83
2022-12-13T20:36:25.634Z,49.60
2022-12-13T20:38:55.585Z,49.96
2022-12-13T20:41:26.417Z,50.14
2022-12-13T20:43:55.599Z,50.03
2022-12-13T20:46:24.063Z,50.31
2022-12-13T20:48:52.293Z,50.65
2022-12-13T20:51:21.970Z,50.90
2022-12-13T20:53:50.982Z,51.19
2022-12-13T20:56:20.193Z,51.00
2022-12-13T20:58:50.358Z,51.15
2022-12-13T21:01:20.185Z,51.32
2022-12-13T21:03:48.464Z,51.00
2022-12-13T21:06:16.708Z,50.72
2022-12-13T21:08:54.366Z,51.36
2022-12-13T21:11:28.764Z,51.31
2022-12-13T21:14:05.360Z,51.19
2022-12-13T21:16:38.449Z,52.03
2022-12-13T21:19:08.510Z,51.99
2022-12-13T21:21:36.685Z,51.65
2022-12-13T21:24:05.209Z,51.44
2022-12-13T21:26:35.620Z,51.26
2022-12-13T21:29:07.423Z,51.48
2022-12-13T21:31:35.926Z,51.71
2022-12-13T21:34:05.267Z,52.28
2022-12-13T21:36:34.685Z,52.19
2022-12-13T21:39:04.694Z,52.85
2022-12-13T21:41:33.260Z,52.96
2022-12-13T21:44:01.188Z,53.14
2022-12-13T21:47:09.666Z,53.24
2022-12-13T21:49:18.852Z,52.58
2022-12-13T21:51:48.428Z,51.99
2022-12-13T21:54:17.814Z,52.15
2022-12-13T21:57:03.193Z,51.73
2022-12-13T21:59:31.641Z,52.03
2022-12-13T22:02:15.610Z,52.70
2022-12-13T22:04:45.317Z,53.23
2022-12-13T22:07:14.470Z,53.40
2022-12-13T22:09:42.462Z,53.06
2022-12-13T22:12:12.123Z,53.36
2022-12-13T22:14:39.925Z,53.68
2022-12-13T22:17:09.166Z,54.08
2022-12-13T22:19:36.993Z,53.25
2022-12-13T22:22:04.889Z,52.66
2022-12-13T22:24:32.761Z,52.94
2022-12-13T22:27:00.646Z,53.09
2022-12-13T22:29:28.830Z,53.20
2022-12-13T22:31:56.661Z,53.24
2022-12-13T22:34:25.864Z,53.33
2022-12-13T22:36:53.972Z,53.37
2022-12-13T22:39:22.869Z,53.37
2022-12-13T22:41:52.070Z,53.46
2022-12-13T22:44:20.923Z,53.50
2022-12-13T22:46:48.780Z,52.88
2022-12-13T22:49:16.705Z,52.28
2022-12-13T22:51:45.877Z,52.53
2022-12-13T22:54:13.688Z,52.60
2022-12-13T22:56:41.480Z,52.70
2022-12-13T22:59:09.342Z,52.53
2022-12-13T23:01:38.906Z,52.37
2022-12-13T23:04:07.638Z,52.72
2022-12-13T23:06:37.550Z,52.58
2022-12-13T23:09:09.139Z,52.71
2022-12-13T23:11:54.737Z,52.50
2022-12-13T23:14:29.411Z,52.73
2022-12-13T23:16:57.428Z,52.39
2022-12-13T23:19:41.616Z,52.49
2022-12-13T23:22:13.758Z,52.11
2022-12-13T23:24:42.973Z,51.94
2022-12-13T23:27:10.936Z,51.59
2022-12-13T23:29:39.163Z,51.63
2022-12-13T23:32:07.002Z,51.38
2022-12-13T23:34:34.989Z,51.20
2022-12-13T23:37:02.885Z,51.42
2022-12-13T23:39:30.718Z,51.38
2022-12-13T23:41:59.917Z,51.57
2022-12-13T23:44:27.720Z,51.47
2022-12-13T23:46:55.558Z,51.45
2022-12-13T23:49:23.457Z,51.46
2022-12-13T23:51:51.296Z,51.79
2022-12-13T23:54:20.159Z,51.63
2022-12-13T23:56:48.190Z,51.66
2022-12-13T23:59:18.886Z,51.39
